Time;durP1;ratioP1;P1;durP2;ratioP2;P2;SDS_P1;SDS_P2;PMS_P1;PMS_P2;Temp;Humidity;BMP_temperature;BMP_pressure;BME280_temperature;BME280_humidity;BME280_pressure;Samples;Min_cycle;Max_cycle;Signal;HPM_P1;HPM_P2
2023/03/04 00:01:05;;;;;;;17.03;11.07;;;;;;;6.83;92.48;94858.88;4994921;28;20192;-80
2023/03/04 00:03:31;;;;;;;24.92;13.88;;;;;;;6.63;93.46;94863.09;5002149;28;20794;-80
2023/03/04 00:05:56;;;;;;;23.92;13.02;;;;;;;6.34;94.16;94854.34;5005873;28;20925;-80
2023/03/04 00:08:21;;;;;;;19.67;13.17;;;;;;;6.02;95.22;94813.00;5005769;28;20426;-80
2023/03/04 00:10:47;;;;;;;17.77;10.70;;;;;;;6.26;95.82;94862.31;5004877;28;20449;-80
2023/03/04 00:13:12;;;;;;;15.03;9.03;;;;;;;5.95;95.98;94809.50;4993680;28;20169;-80
2023/03/04 00:15:38;;;;;;;18.53;10.63;;;;;;;6.06;96.51;94856.03;4994318;28;20486;-80
2023/03/04 00:18:03;;;;;;;17.35;11.00;;;;;;;5.98;96.88;94840.47;4994405;28;20416;-80
2023/03/04 00:20:29;;;;;;;17.77;10.98;;;;;;;6.12;96.95;94838.81;4994961;28;20420;-80
2023/03/04 00:22:54;;;;;;;19.10;10.98;;;;;;;6.29;96.28;94842.84;4994358;28;20412;-80
2023/03/04 00:25:19;;;;;;;20.13;12.53;;;;;;;5.96;96.66;94817.16;4993828;28;20511;-80
2023/03/04 00:27:46;;;;;;;16.87;9.50;;;;;;;6.32;96.03;94840.66;4994717;28;20173;-81
2023/03/04 00:30:11;;;;;;;19.43;10.70;;;;;;;6.31;95.89;94843.47;5010897;28;20169;-80
2023/03/04 00:32:36;;;;;;;17.87;9.97;;;;;;;6.05;95.57;94786.50;5002604;28;20184;-81
2023/03/04 00:35:02;;;;;;;15.43;9.80;;;;;;;6.13;95.41;94794.22;5002568;28;20189;-80
2023/03/04 00:37:28;;;;;;;20.97;11.00;;;;;;;6.50;95.54;94835.00;5002299;28;20208;-81
2023/03/04 00:39:53;;;;;;;17.77;10.13;;;;;;;6.30;94.91;94800.84;5002424;28;20176;-81
2023/03/04 00:42:18;;;;;;;16.33;10.23;;;;;;;6.61;94.54;94836.31;5003620;28;20699;-81
2023/03/04 00:44:44;;;;;;;16.53;8.97;;;;;;;6.65;94.41;94845.44;5005528;28;20176;-81
2023/03/04 00:47:09;;;;;;;18.10;11.43;;;;;;;6.62;94.28;94836.13;4996646;28;21015;-81
2023/03/04 00:49:36;;;;;;;15.57;9.47;;;;;;;6.60;94.19;94837.31;5004852;28;20567;-80
2023/03/04 00:52:02;;;;;;;20.97;9.40;;;;;;;6.65;94.13;94827.94;4998979;28;20188;-80
2023/03/04 00:54:27;;;;;;;16.67;9.90;;;;;;;6.53;93.74;94810.28;5002110;28;20228;-80
2023/03/04 00:56:53;;;;;;;14.67;8.60;;;;;;;6.70;93.51;94838.63;5001182;28;20296;-81
2023/03/04 00:59:18;;;;;;;18.13;11.03;;;;;;;6.66;93.86;94829.53;5009298;28;20449;-80
2023/03/04 01:01:43;;;;;;;15.03;8.03;;;;;;;6.79;93.44;94839.31;5005016;28;20168;-80
2023/03/04 01:04:09;;;;;;;17.80;9.00;;;;;;;6.88;92.27;94846.03;5007394;28;20188;-80
2023/03/04 01:06:34;;;;;;;13.23;8.70;;;;;;;6.76;92.22;94829.22;5002835;28;20204;-80
2023/03/04 01:09:00;;;;;;;16.37;9.93;;;;;;;6.61;92.83;94828.47;5004999;28;20172;-80
2023/03/04 01:11:26;;;;;;;17.17;8.90;;;;;;;6.63;92.79;94842.19;4995656;28;20182;-80
2023/03/04 01:13:51;;;;;;;22.30;10.80;;;;;;;6.59;92.90;94833.88;5012720;28;20486;-80
2023/03/04 01:16:17;;;;;;;17.70;10.27;;;;;;;6.62;93.27;94830.91;5004736;28;20223;-80
2023/03/04 01:18:43;;;;;;;18.10;8.93;;;;;;;6.64;93.29;94826.31;5004450;28;20624;-80
2023/03/04 01:21:09;;;;;;;17.90;9.40;;;;;;;6.71;93.20;94826.38;5001685;28;20184;-80
2023/03/04 01:23:34;;;;;;;21.50;9.73;;;;;;;6.69;92.59;94821.31;4993934;28;20169;-80
2023/03/04 01:26:00;;;;;;;21.92;11.73;;;;;;;6.71;92.76;94829.78;4993217;28;20951;-80
2023/03/04 01:28:25;;;;;;;17.90;10.50;;;;;;;6.71;92.33;94813.28;5006922;28;20236;-80
2023/03/04 01:30:50;;;;;;;20.40;10.27;;;;;;;6.79;92.11;94815.78;4996088;28;20260;-80
2023/03/04 01:33:16;;;;;;;19.23;9.53;;;;;;;6.78;91.90;94822.00;5001318;28;20632;-80
2023/03/04 01:35:41;;;;;;;18.73;9.57;;;;;;;6.76;91.76;94806.47;5008499;28;20180;-80
2023/03/04 01:38:07;;;;;;;20.10;10.40;;;;;;;6.82;91.34;94815.41;5013032;28;20192;-80
2023/03/04 01:40:32;;;;;;;20.40;10.33;;;;;;;6.57;90.97;94770.53;5013163;28;20196;-80
2023/03/04 01:42:58;;;;;;;20.40;9.57;;;;;;;6.75;91.04;94796.19;5012652;28;20731;-80
2023/03/04 01:45:24;;;;;;;22.03;11.13;;;;;;;6.74;90.79;94797.22;5012182;28;20410;-80
2023/03/04 01:47:50;;;;;;;19.97;10.00;;;;;;;6.50;90.41;94753.94;5006468;28;20185;-80
2023/03/04 01:50:26;;;;;;;14.33;8.50;;;;;;;6.82;90.10;94802.31;5002711;28;20280;-80
2023/03/04 01:52:51;;;;;;;15.87;8.73;;;;;;;6.71;89.83;94797.59;5004402;28;20176;-81
2023/03/04 01:55:18;;;;;;;24.20;9.03;;;;;;;6.65;90.54;94790.50;5005647;28;20231;-80
2023/03/04 01:57:46;;;;;;;21.33;10.10;;;;;;;6.67;89.88;94793.72;5012549;28;20204;-81
2023/03/04 02:00:30;;;;;;;15.87;8.40;;;;;;;6.58;90.52;94792.22;5012358;28;20820;-80
2023/03/04 02:03:03;;;;;;;15.93;8.50;;;;;;;6.58;90.28;94793.03;5006809;28;20584;-80
2023/03/04 02:05:29;;;;;;;17.80;9.40;;;;;;;6.51;90.70;94796.59;5011976;28;20433;-80
2023/03/04 02:07:56;;;;;;;14.70;9.43;;;;;;;6.44;90.94;94794.72;5012015;28;20643;-80
2023/03/04 02:10:22;;;;;;;14.80;8.67;;;;;;;6.32;91.24;94798.00;5012296;28;20176;-80
2023/03/04 02:12:47;;;;;;;18.83;9.83;;;;;;;6.31;91.40;94791.97;5012660;28;20209;-80
2023/03/04 02:15:13;;;;;;;12.43;8.10;;;;;;;6.27;91.82;94788.13;5012352;28;20172;-80
2023/03/04 02:17:38;;;;;;;15.00;9.23;;;;;;;6.33;92.08;94789.19;5012236;28;20426;-80
2023/03/04 02:20:22;;;;;;;14.77;8.80;;;;;;;6.35;91.72;94789.81;5012772;28;20211;-80
2023/03/04 02:23:13;;;;;;;14.45;9.07;;;;;;;6.37;92.18;94780.00;5012280;28;20415;-80
2023/03/04 02:26:14;;;;;;;13.67;8.70;;;;;;;6.38;91.60;94784.22;5012224;28;20191;-80
2023/03/04 02:28:40;;;;;;;13.80;8.57;;;;;;;6.35;91.67;94774.94;5012219;28;20176;-80
2023/03/04 02:31:06;;;;;;;13.30;8.53;;;;;;;6.40;92.01;94783.03;5012390;28;20315;-80
2023/03/04 02:33:32;;;;;;;14.60;8.53;;;;;;;6.43;91.64;94785.28;5012428;28;20180;-80
2023/03/04 02:35:58;;;;;;;14.20;8.37;;;;;;;6.42;91.56;94788.06;5012013;28;20183;-80
2023/03/04 02:38:23;;;;;;;12.53;8.13;;;;;;;6.40;91.51;94787.44;5012069;28;20172;-80
2023/03/04 02:40:53;;;;;;;46.87;23.83;;;;;;;6.31;92.02;94768.44;5012014;28;20986;-80
2023/03/04 02:43:19;;;;;;;27.87;15.73;;;;;;;6.11;92.86;94733.50;5012050;28;20251;-80
2023/03/04 02:45:49;;;;;;;14.57;9.67;;;;;;;6.28;92.36;94744.50;5011930;28;20318;-80
2023/03/04 02:48:19;;;;;;;16.23;10.37;;;;;;;6.49;91.55;94772.47;5012118;28;20173;-80
2023/03/04 02:50:52;;;;;;;17.47;10.93;;;;;;;6.24;91.34;94738.84;5011911;28;20183;-80
2023/03/04 02:53:19;;;;;;;16.47;9.70;;;;;;;6.39;90.95;94770.97;5012460;28;20169;-80
2023/03/04 02:55:45;;;;;;;16.50;9.53;;;;;;;6.27;91.11;94767.22;5001709;28;20247;-80
2023/03/04 02:58:12;;;;;;;18.50;11.32;;;;;;;5.99;91.58;94741.00;5000065;28;20522;-80
2023/03/04 03:00:38;;;;;;;18.75;12.20;;;;;;;6.10;92.36;94770.25;5000040;28;20427;-80
2023/03/04 03:03:04;;;;;;;20.10;10.07;;;;;;;6.12;92.41;94770.88;4996177;28;20603;-80
2023/03/04 03:05:32;;;;;;;14.53;9.63;;;;;;;6.13;91.92;94770.72;4997325;28;20545;-80
2023/03/04 03:07:58;;;;;;;16.33;10.10;;;;;;;5.88;91.78;94730.25;4992296;28;20625;-80
2023/03/04 03:10:24;;;;;;;15.80;10.03;;;;;;;5.84;91.21;94726.34;4992475;28;20201;-80
2023/03/04 03:12:50;;;;;;;20.63;10.50;;;;;;;6.06;91.46;94775.84;4992475;28;20187;-79
2023/03/04 03:15:15;;;;;;;16.93;9.67;;;;;;;5.92;91.69;94774.09;4992210;28;20186;-80
2023/03/04 03:17:41;;;;;;;15.43;9.93;;;;;;;5.96;91.68;94777.97;4992798;28;20189;-80
2023/03/04 03:20:09;;;;;;;20.20;12.00;;;;;;;5.73;92.18;94747.72;5000424;28;20496;-81
2023/03/04 03:22:34;;;;;;;16.13;10.43;;;;;;;5.73;92.16;94740.69;5004170;28;20188;-81
2023/03/04 03:24:59;;;;;;;19.17;10.50;;;;;;;5.59;92.42;94725.88;5004046;28;20231;-80
2023/03/04 03:27:25;;;;;;;24.03;13.47;;;;;;;5.87;92.71;94765.97;5003702;28;20185;-81
2023/03/04 03:29:50;;;;;;;17.97;10.50;;;;;;;5.98;92.36;94775.97;4995782;28;20412;-81
2023/03/04 03:32:16;;;;;;;15.98;9.70;;;;;;;5.90;92.45;94772.66;5003577;28;20431;-82
2023/03/04 03:34:41;;;;;;;17.60;10.53;;;;;;;5.68;92.96;94777.00;5006040;28;20844;-81
2023/03/04 03:37:07;;;;;;;17.87;9.80;;;;;;;5.63;93.62;94769.69;5001247;28;20271;-81
2023/03/04 03:39:32;;;;;;;16.60;9.37;;;;;;;5.60;94.24;94770.09;5003720;28;20276;-81
2023/03/04 03:41:57;;;;;;;16.97;9.50;;;;;;;5.25;93.85;94703.78;5003381;28;20205;-82
2023/03/04 03:44:23;;;;;;;18.47;10.27;;;;;;;5.46;94.07;94744.78;4995315;28;20161;-81
2023/03/04 03:46:48;;;;;;;16.00;9.63;;;;;;;5.33;93.54;94718.53;4997817;28;20204;-81
2023/03/04 03:49:13;;;;;;;18.50;10.83;;;;;;;5.56;93.22;94766.19;5006542;28;20230;-81
2023/03/04 03:51:39;;;;;;;18.60;10.63;;;;;;;5.55;93.42;94767.19;5006264;28;20699;-81
2023/03/04 03:54:04;;;;;;;17.10;9.77;;;;;;;5.54;92.79;94770.78;5003635;28;20204;-81
2023/03/04 03:56:30;;;;;;;16.57;10.83;;;;;;;5.48;92.91;94771.53;5013261;28;20264;-80
2023/03/04 03:58:55;;;;;;;16.67;10.33;;;;;;;5.34;92.34;94746.25;5015058;28;20179;-81
2023/03/04 04:01:20;;;;;;;16.60;11.30;;;;;;;5.10;92.98;94708.19;5014641;28;20235;-81
2023/03/04 04:03:46;;;;;;;16.50;10.27;;;;;;;5.45;92.19;94758.03;5014330;28;20187;-81
2023/03/04 04:06:11;;;;;;;17.27;10.37;;;;;;;5.40;92.53;94755.97;5014926;28;20161;-81
2023/03/04 04:08:37;;;;;;;17.37;10.40;;;;;;;5.37;92.40;94756.31;5014376;28;20168;-81
2023/03/04 04:11:02;;;;;;;20.03;11.53;;;;;;;5.12;92.10;94716.66;5014159;28;20739;-81
2023/03/04 04:13:28;;;;;;;19.03;12.07;;;;;;;5.32;92.59;94748.22;5014216;28;20168;-81
2023/03/04 04:15:53;;;;;;;23.07;12.07;;;;;;;5.22;92.32;94735.44;5013988;28;20548;-81
2023/03/04 04:18:18;;;;;;;23.93;13.60;;;;;;;5.24;92.22;94743.09;5014401;28;20255;-81
2023/03/04 04:20:45;;;;;;;31.27;15.90;;;;;;;5.22;92.05;94752.91;5014414;28;20169;-81
2023/03/04 04:23:10;;;;;;;31.37;14.67;;;;;;;5.18;91.94;94749.88;5013939;28;20188;-81
2023/03/04 04:25:36;;;;;;;28.17;14.77;;;;;;;4.85;92.33;94699.03;5013918;28;20247;-81
2023/03/04 04:28:02;;;;;;;30.80;14.47;;;;;;;5.10;92.13;94749.94;5013940;28;20168;-81
2023/03/04 04:30:27;;;;;;;30.17;15.43;;;;;;;4.84;92.18;94716.47;5013317;28;20196;-81
2023/03/04 04:32:53;;;;;;;64.33;20.80;;;;;;;5.05;92.67;94747.06;5013950;28;20184;-81
2023/03/04 04:35:18;;;;;;;26.20;14.13;;;;;;;4.70;92.37;94696.41;5013688;28;20259;-80
2023/03/04 04:37:44;;;;;;;18.83;11.80;;;;;;;4.98;92.83;94746.16;5013800;28;20196;-81
2023/03/04 04:40:10;;;;;;;21.87;11.37;;;;;;;4.89;92.19;94744.63;5013987;28;20184;-81
2023/03/04 04:42:35;;;;;;;18.27;11.00;;;;;;;4.89;92.33;94752.44;5012492;28;20173;-81
2023/03/04 04:45:01;;;;;;;20.47;11.37;;;;;;;4.84;92.24;94744.38;5014160;28;20655;-80
2023/03/04 04:47:26;;;;;;;19.00;11.87;;;;;;;4.42;92.84;94687.56;5013908;28;20156;-80
2023/03/04 04:49:51;;;;;;;20.90;12.30;;;;;;;4.57;92.55;94717.09;5013537;28;20191;-80
2023/03/04 04:52:17;;;;;;;18.60;9.93;;;;;;;4.75;92.05;94746.25;5013528;28;20690;-80
2023/03/04 04:54:42;;;;;;;19.10;11.17;;;;;;;4.70;92.25;94743.34;5011552;28;20224;-81
2023/03/04 04:57:08;;;;;;;19.13;10.37;;;;;;;4.45;92.37;94703.66;5007375;28;20216;-80
2023/03/04 04:59:34;;;;;;;21.93;12.43;;;;;;;4.72;92.38;94754.41;5013677;28;20161;-80
2023/03/04 05:01:59;;;;;;;23.47;13.07;;;;;;;4.28;92.15;94694.38;5013128;28;20169;-80
2023/03/04 05:04:25;;;;;;;23.40;11.93;;;;;;;4.69;91.96;94770.38;5005264;28;20183;-81
2023/03/04 05:06:50;;;;;;;22.73;12.77;;;;;;;4.62;92.44;94760.84;5002996;28;20194;-81
2023/03/04 05:09:15;;;;;;;21.13;12.83;;;;;;;4.58;92.99;94754.38;4998996;28;20282;-80
2023/03/04 05:11:41;;;;;;;24.50;13.87;;;;;;;4.68;92.93;94775.78;5004674;28;20176;-81
2023/03/04 05:14:06;;;;;;;33.80;16.83;;;;;;;4.70;92.62;94773.81;5008940;28;20180;-82
2023/03/04 05:16:32;;;;;;;32.00;15.40;;;;;;;4.73;92.57;94781.28;5006237;28;20197;-80
2023/03/04 05:18:57;;;;;;;41.60;17.67;;;;;;;4.75;92.80;94787.16;5001682;28;20718;-78
2023/03/04 05:21:23;;;;;;;33.60;17.77;;;;;;;4.75;92.70;94776.72;5005521;28;20509;-78
2023/03/04 05:23:48;;;;;;;36.67;18.53;;;;;;;4.73;92.45;94770.84;4995878;28;20623;-79
2023/03/04 05:26:16;;;;;;;48.40;19.37;;;;;;;4.80;92.26;94787.41;5006671;28;20541;-79
2023/03/04 05:28:43;;;;;;;40.73;20.13;;;;;;;4.74;92.23;94759.44;5003332;28;20176;-79
2023/03/04 05:31:09;;;;;;;47.03;25.63;;;;;;;4.86;91.91;94790.13;5007021;28;20177;-79
2023/03/04 05:33:34;;;;;;;55.23;31.37;;;;;;;4.91;92.37;94792.22;5013362;28;20172;-79
2023/03/04 05:36:03;;;;;;;48.50;25.73;;;;;;;4.96;92.20;94791.66;5013098;28;20632;-79
2023/03/04 05:38:28;;;;;;;73.53;37.83;;;;;;;4.76;92.29;94754.84;5002183;28;20580;-80
2023/03/04 05:41:00;;;;;;;30.37;16.60;;;;;;;5.03;92.28;94782.94;5008803;28;20252;-79
2023/03/04 05:43:27;;;;;;;35.33;19.40;;;;;;;5.10;92.74;94780.44;4999646;28;20181;-79
2023/03/04 05:45:53;;;;;;;61.40;31.70;;;;;;;5.14;92.90;94792.13;4999036;28;20708;-79
2023/03/04 05:48:18;;;;;;;44.00;24.97;;;;;;;5.14;93.30;94785.13;5003153;28;20187;-80
2023/03/04 05:50:44;;;;;;;33.03;18.27;;;;;;;4.95;93.11;94743.91;5002612;28;20541;-79
2023/03/04 05:53:09;;;;;;;24.37;13.93;;;;;;;5.13;93.04;94773.06;4996797;28;20264;-79
2023/03/04 05:55:35;;;;;;;26.10;14.80;;;;;;;5.22;93.35;94776.38;5010300;28;20232;-79
2023/03/04 05:58:00;;;;;;;23.87;13.37;;;;;;;5.35;93.13;94799.25;5011931;28;20208;-79
2023/03/04 06:00:26;;;;;;;23.87;13.90;;;;;;;4.99;92.78;94749.59;5012098;28;20199;-79
2023/03/04 06:02:51;;;;;;;27.73;14.77;;;;;;;5.27;93.13;94802.78;5012086;28;20189;-78
2023/03/04 06:05:17;;;;;;;25.83;14.27;;;;;;;5.33;93.01;94796.81;5012000;28;20666;-79
2023/03/04 06:07:43;;;;;;;29.60;15.43;;;;;;;5.48;92.99;94809.88;5012242;28;20172;-79
2023/03/04 06:10:10;;;;;;;26.93;13.57;;;;;;;5.49;92.56;94814.09;5012441;28;20187;-80
2023/03/04 06:12:36;;;;;;;24.03;13.10;;;;;;;5.36;92.84;94786.03;5011136;28;20676;-78
2023/03/04 06:15:02;;;;;;;22.63;13.13;;;;;;;5.59;92.77;94809.41;5012175;28;20758;-79
2023/03/04 06:17:28;;;;;;;21.20;12.57;;;;;;;5.70;92.80;94814.19;5012164;28;20275;-78
2023/03/04 06:19:54;;;;;;;21.37;13.23;;;;;;;5.81;92.59;94808.47;5011825;28;20707;-77
2023/03/04 06:22:19;;;;;;;25.17;13.90;;;;;;;5.73;92.80;94785.06;5012557;28;20204;-79
2023/03/04 06:24:45;;;;;;;21.10;13.20;;;;;;;5.74;92.26;94778.88;5012213;28;20618;-80
2023/03/04 06:27:10;;;;;;;50.93;32.63;;;;;;;6.11;92.16;94824.13;5011991;28;20183;-80
2023/03/04 06:29:36;;;;;;;60.30;39.23;;;;;;;6.21;91.93;94825.47;5011828;28;20176;-79
2023/03/04 06:32:01;;;;;;;70.93;47.60;;;;;;;6.34;91.54;94824.78;5011867;28;20227;-77
2023/03/04 06:34:28;;;;;;;93.20;57.33;;;;;;;6.51;91.56;94825.34;5011531;28;20238;-77
2023/03/04 06:36:54;;;;;;;97.37;61.03;;;;;;;6.63;91.28;94814.22;5010236;28;20679;-80
2023/03/04 06:39:19;;;;;;;117.77;72.17;;;;;;;6.85;91.34;94828.09;5011316;28;20173;-79
2023/03/04 06:41:45;;;;;;;72.77;45.27;;;;;;;6.95;91.00;94815.50;5011213;28;20668;-76
2023/03/04 06:44:10;;;;;;;63.33;36.20;;;;;;;7.13;90.11;94823.69;5011371;28;20183;-78
2023/03/04 06:46:35;;;;;;;60.30;31.90;;;;;;;7.27;89.86;94823.78;5012210;28;20214;-78
2023/03/04 06:49:01;;;;;;;73.17;28.90;;;;;;;7.30;89.35;94816.34;5014455;28;20690;-79
2023/03/04 06:51:27;;;;;;;60.60;26.13;;;;;;;7.39;88.87;94824.88;5013952;28;20770;-79
2023/03/04 06:53:53;;;;;;;51.47;28.80;;;;;;;7.47;88.74;94828.16;5011561;28;20318;-79
2023/03/04 06:56:18;;;;;;;56.63;27.80;;;;;;;7.51;88.37;94823.34;5016782;28;20586;-81
2023/03/04 06:58:44;;;;;;;30.63;16.97;;;;;;;7.52;88.05;94830.22;5016025;28;20183;-79
2023/03/04 07:01:09;;;;;;;13.73;9.37;;;;;;;7.56;86.83;94841.91;5015219;28;20672;-80
2023/03/04 07:03:36;;;;;;;12.23;7.63;;;;;;;7.58;86.15;94835.47;5015498;28;20605;-80
2023/03/04 07:06:02;;;;;;;12.83;7.90;;;;;;;7.35;85.25;94797.47;5014828;28;20173;-80
2023/03/04 07:08:27;;;;;;;12.97;8.13;;;;;;;7.44;85.61;94815.44;5013004;28;20666;-80
2023/03/04 07:10:52;;;;;;;11.57;7.53;;;;;;;7.55;85.74;94843.72;5012543;28;20185;-80
2023/03/04 07:13:18;;;;;;;12.20;7.37;;;;;;;7.56;85.66;94847.13;5012875;28;20250;-81
2023/03/04 07:15:43;;;;;;;11.90;6.90;;;;;;;7.47;85.66;94835.19;5013203;28;20259;-81
2023/03/04 07:18:09;;;;;;;16.53;8.10;;;;;;;7.56;85.97;94839.28;5012673;28;20266;-81
2023/03/04 07:20:34;;;;;;;13.97;8.10;;;;;;;7.66;85.62;94839.75;5011170;28;20192;-81
2023/03/04 07:22:59;;;;;;;14.67;8.47;;;;;;;7.72;85.72;94843.41;5010817;28;20184;-80
2023/03/04 07:25:25;;;;;;;17.87;8.60;;;;;;;7.87;85.56;94841.47;5011465;28;20184;-80
2023/03/04 07:27:50;;;;;;;43.90;22.03;;;;;;;7.97;85.70;94858.44;5012424;28;20244;-80
2023/03/04 07:30:18;;;;;;;18.97;11.23;;;;;;;7.95;85.40;94821.16;5012839;28;20299;-81
2023/03/04 07:32:44;;;;;;;15.23;8.47;;;;;;;8.10;84.57;94841.16;5011765;28;20586;-81
2023/03/04 07:35:09;;;;;;;16.30;8.67;;;;;;;8.06;83.36;94814.53;5012628;28;20258;-81
2023/03/04 07:37:35;;;;;;;13.30;7.80;;;;;;;8.32;83.50;94845.31;5013003;28;20287;-80
2023/03/04 07:40:00;;;;;;;17.10;8.20;;;;;;;8.43;82.65;94843.94;5012485;28;20172;-81
2023/03/04 07:42:25;;;;;;;17.43;8.50;;;;;;;8.56;82.74;94842.13;5013090;28;20180;-81
2023/03/04 07:44:52;;;;;;;13.07;8.00;;;;;;;8.65;81.71;94843.56;5012512;28;20246;-81
2023/03/04 07:47:17;;;;;;;12.77;7.90;;;;;;;8.69;82.02;94826.44;5010709;28;20570;-81
2023/03/04 07:49:42;;;;;;;13.90;7.30;;;;;;;8.79;81.62;94838.38;5011963;28;20177;-81
2023/03/04 07:52:08;;;;;;;14.93;7.20;;;;;;;8.92;80.67;94833.91;5012217;28;20195;-81
2023/03/04 07:54:33;;;;;;;18.60;8.47;;;;;;;8.91;79.76;94818.38;5011789;28;20195;-81
2023/03/04 07:56:59;;;;;;;13.20;7.57;;;;;;;9.02;79.17;94836.97;5011674;28;20586;-81
2023/03/04 07:59:24;;;;;;;13.63;8.27;;;;;;;9.15;78.43;94836.16;5012240;28;20259;-80
2023/03/04 08:01:50;;;;;;;13.20;7.33;;;;;;;9.17;77.59;94843.84;5012076;28;20239;-80
2023/03/04 08:04:15;;;;;;;17.73;7.90;;;;;;;9.19;77.15;94839.19;5012557;28;20191;-80
2023/03/04 08:06:40;;;;;;;13.27;6.70;;;;;;;9.09;76.99;94826.44;5011805;28;20181;-81
2023/03/04 08:09:09;;;;;;;15.20;8.07;;;;;;;9.13;77.32;94837.38;5012862;28;20184;-81
2023/03/04 08:11:36;;;;;;;15.43;7.23;;;;;;;9.08;77.36;94833.53;5011722;28;20183;-80
2023/03/04 08:14:02;;;;;;;11.00;7.53;;;;;;;9.02;77.64;94839.59;5012207;28;20180;-80
2023/03/04 08:16:28;;;;;;;14.47;8.37;;;;;;;9.01;77.36;94837.97;5011541;28;20274;-80
2023/03/04 08:18:56;;;;;;;15.33;8.07;;;;;;;8.93;76.59;94838.16;5011919;28;20184;-80
2023/03/04 08:21:23;;;;;;;16.70;9.03;;;;;;;8.80;76.72;94827.66;5012156;28;20633;-80
2023/03/04 08:23:48;;;;;;;18.17;8.90;;;;;;;8.74;77.84;94840.75;5011875;28;20176;-80
2023/03/04 08:26:18;;;;;;;17.93;7.77;;;;;;;8.68;78.25;94834.50;5021872;28;20180;-80
2023/03/04 08:28:44;;;;;;;14.97;7.80;;;;;;;8.64;77.37;94836.72;5020247;28;20179;-77
2023/03/04 08:31:11;;;;;;;13.43;8.20;;;;;;;8.55;77.58;94834.50;5013290;28;21050;-79
2023/03/04 08:33:37;;;;;;;13.87;8.13;;;;;;;8.47;78.47;94827.63;5014342;28;20263;-78
2023/03/04 08:36:03;;;;;;;15.87;8.07;;;;;;;8.49;78.84;94833.44;5017388;28;20176;-78
2023/03/04 08:38:28;;;;;;;23.80;9.87;;;;;;;8.46;78.51;94820.75;5013921;28;20246;-79
2023/03/04 08:40:55;;;;;;;12.50;7.00;;;;;;;8.51;78.40;94828.81;5014340;28;20195;-80
2023/03/04 08:43:22;;;;;;;13.57;8.00;;;;;;;8.54;78.22;94833.69;5013755;28;20542;-78
2023/03/04 08:45:48;;;;;;;14.50;8.10;;;;;;;8.43;78.41;94797.53;5013309;28;20636;-79
2023/03/04 08:48:14;;;;;;;13.07;6.63;;;;;;;8.72;78.73;94827.06;5008312;28;20226;-79
2023/03/04 08:50:39;;;;;;;10.47;6.00;;;;;;;8.75;77.62;94830.06;5015336;28;20539;-80
2023/03/04 08:53:05;;;;;;;11.33;5.83;;;;;;;8.80;76.88;94821.59;5013554;28;20565;-80
2023/03/04 08:55:30;;;;;;;10.17;5.83;;;;;;;8.78;76.75;94797.38;5012701;28;20224;-81
2023/03/04 08:57:55;;;;;;;12.50;6.20;;;;;;;8.97;76.13;94807.88;5015098;28;20280;-81
2023/03/04 09:00:22;;;;;;;13.97;6.40;;;;;;;9.19;76.15;94824.22;5012978;28;20272;-81
2023/03/04 09:02:48;;;;;;;14.90;6.17;;;;;;;9.35;76.29;94826.44;5012762;28;20200;-82
2023/03/04 09:05:13;;;;;;;12.67;5.40;;;;;;;9.51;74.46;94822.59;5011935;28;20674;-80
2023/03/04 09:07:39;;;;;;;12.13;5.30;;;;;;;9.31;72.77;94777.97;5012732;28;20303;-81
2023/03/04 09:10:05;;;;;;;13.77;6.07;;;;;;;9.58;73.65;94783.16;5011542;28;20563;-81
2023/03/04 09:12:30;;;;;;;12.43;7.47;;;;;;;9.86;72.70;94820.47;5012664;28;20164;-81
2023/03/04 09:14:55;;;;;;;13.17;6.77;;;;;;;9.99;73.94;94823.06;5012420;28;20267;-81
2023/03/04 09:17:21;;;;;;;14.07;6.97;;;;;;;10.36;73.62;94816.28;5011939;28;20215;-81
2023/03/04 09:19:46;;;;;;;13.53;7.30;;;;;;;10.66;74.47;94813.88;5012825;28;20199;-80
2023/03/04 09:22:12;;;;;;;16.50;8.33;;;;;;;10.95;73.93;94809.84;5012826;28;20175;-82
2023/03/04 09:24:37;;;;;;;14.67;8.03;;;;;;;10.90;69.17;94820.19;5012762;28;20231;-80
2023/03/04 09:27:03;;;;;;;16.13;8.07;;;;;;;10.56;68.30;94813.53;5012483;28;20178;-81
2023/03/04 09:29:28;;;;;;;13.90;8.20;;;;;;;10.45;69.67;94809.75;5012310;28;20207;-81
2023/03/04 09:31:53;;;;;;;19.70;8.00;;;;;;;10.21;70.09;94774.44;5012229;28;20251;-81
2023/03/04 09:34:19;;;;;;;27.73;8.87;;;;;;;10.29;69.54;94804.97;5012355;28;20172;-80
2023/03/04 09:36:44;;;;;;;16.07;7.97;;;;;;;10.33;70.18;94808.78;5012425;28;20196;-79
2023/03/04 09:39:10;;;;;;;13.27;8.33;;;;;;;10.26;70.31;94799.31;5012331;28;20644;-79
2023/03/04 09:41:41;;;;;;;19.70;9.10;;;;;;;10.37;72.28;94801.31;5012239;28;20172;-80
2023/03/04 09:44:27;;;;;;;17.33;8.90;;;;;;;10.47;71.00;94805.06;5012278;28;20180;-79
2023/03/04 09:46:57;;;;;;;13.83;8.20;;;;;;;10.44;71.87;94789.72;5010421;28;20191;-80
2023/03/04 09:49:24;;;;;;;16.80;8.93;;;;;;;10.40;70.50;94771.91;5012304;28;20635;-79
2023/03/04 09:52:15;;;;;;;13.80;7.90;;;;;;;10.67;71.44;94802.31;5012188;28;20180;-78
2023/03/04 09:54:59;;;;;;;17.50;8.20;;;;;;;10.76;71.29;94789.72;5018045;28;20607;-81
2023/03/04 09:57:29;;;;;;;16.30;8.27;;;;;;;10.82;71.15;94792.28;5019468;28;20204;-79
2023/03/04 10:00:18;;;;;;;17.17;8.60;;;;;;;10.76;70.46;94773.91;5002880;28;20181;-79
2023/03/04 10:03:09;;;;;;;16.57;8.50;;;;;;;10.88;70.71;94796.72;5002210;28;20181;-79
2023/03/04 10:05:52;;;;;;;15.70;9.27;;;;;;;10.79;71.00;94770.88;5003500;28;20666;-79
2023/03/04 10:08:32;;;;;;;19.30;9.37;;;;;;;10.88;70.13;94788.81;4988762;28;20660;-79
2023/03/04 10:11:00;;;;;;;19.23;9.13;;;;;;;10.86;71.70;94780.31;5007081;28;20180;-79
2023/03/04 10:13:39;;;;;;;16.67;8.50;;;;;;;11.00;70.71;94777.56;4991034;28;20239;-79
2023/03/04 10:16:08;;;;;;;19.77;7.83;;;;;;;10.68;69.76;94764.44;4989989;28;20185;-79
2023/03/04 10:18:43;;;;;;;16.03;8.00;;;;;;;10.44;70.59;94746.81;4990080;28;20235;-79
2023/03/04 10:21:14;;;;;;;15.30;8.03;;;;;;;10.68;70.67;94772.34;5003653;28;20695;-79
2023/03/04 10:23:40;;;;;;;13.03;7.97;;;;;;;10.78;70.79;94756.09;4990104;28;20718;-79
2023/03/04 10:26:15;;;;;;;13.67;7.37;;;;;;;10.91;71.60;94740.16;4990363;28;20180;-79
2023/03/04 10:28:40;;;;;;;13.90;7.90;;;;;;;11.16;68.87;94748.84;4990889;28;20179;-80
2023/03/04 10:31:21;;;;;;;20.13;7.67;;;;;;;11.29;68.22;94761.13;4997054;28;20564;-80
2023/03/04 10:33:47;;;;;;;13.67;8.07;;;;;;;11.31;68.77;94756.44;4998042;28;20528;-80
2023/03/04 10:36:28;;;;;;;13.10;7.23;;;;;;;11.38;68.58;94751.91;5009478;28;20191;-82
2023/03/04 10:39:05;;;;;;;13.50;7.73;;;;;;;11.21;67.42;94708.69;5014457;28;20171;-82
2023/03/04 10:41:31;;;;;;;15.27;7.67;;;;;;;11.27;67.61;94726.25;5013110;28;20658;-80
2023/03/04 10:44:15;;;;;;;25.77;7.87;;;;;;;11.34;68.58;94733.06;5015679;28;20541;-80
2023/03/04 10:46:43;;;;;;;14.27;7.67;;;;;;;11.34;68.27;94740.97;5014205;28;20165;-80
2023/03/04 10:49:10;;;;;;;15.07;7.90;;;;;;;10.95;67.42;94686.84;5012936;28;20180;-80
2023/03/04 10:51:50;;;;;;;15.80;7.83;;;;;;;11.18;68.05;94728.38;5012153;28;20172;-80
2023/03/04 10:54:53;;;;;;;17.27;8.03;;;;;;;11.09;69.32;94724.41;5001924;28;20184;-80
2023/03/04 10:57:22;;;;;;;21.00;9.70;;;;;;;11.00;69.34;94719.63;4995830;28;20307;-80
2023/03/04 10:59:58;;;;;;;16.77;8.47;;;;;;;10.83;70.04;94698.31;4993291;28;20187;-80
2023/03/04 11:02:35;;;;;;;16.23;7.97;;;;;;;10.79;69.88;94697.13;4976007;28;20212;-80
2023/03/04 11:05:20;;;;;;;15.13;8.73;;;;;;;10.89;70.17;94713.25;4993744;28;20177;-82
2023/03/04 11:07:48;;;;;;;14.53;8.30;;;;;;;10.86;69.68;94703.97;4992398;28;20707;-79
2023/03/04 11:10:14;;;;;;;16.37;8.83;;;;;;;10.80;69.96;94702.19;5002718;28;20207;-79
2023/03/04 11:12:40;;;;;;;18.40;9.73;;;;;;;10.81;70.59;94689.84;4992900;28;20188;-79
2023/03/04 11:15:27;;;;;;;15.73;8.57;;;;;;;10.60;70.87;94685.75;4993559;28;20561;-79
2023/03/04 11:17:58;;;;;;;15.30;8.97;;;;;;;10.48;71.09;94684.81;4993921;28;20209;-79
2023/03/04 11:20:37;;;;;;;17.67;9.10;;;;;;;10.45;71.75;94659.75;4993696;28;20189;-80
2023/03/04 11:23:15;;;;;;;13.17;7.43;;;;;;;10.40;71.39;94651.69;4974729;28;20181;-79
2023/03/04 11:25:45;;;;;;;14.47;8.00;;;;;;;10.64;70.73;94671.13;4995707;28;20172;-81
2023/03/04 11:28:10;;;;;;;15.53;8.73;;;;;;;10.72;70.44;94664.81;5000520;28;20619;-80
2023/03/04 11:30:41;;;;;;;13.67;8.63;;;;;;;10.54;70.79;94626.09;4993159;28;20177;-80